createdAt,value
2023-10-17T00:00:24.956Z,3.20
2023-10-17T00:02:51.658Z,3.10
2023-10-17T00:05:19.726Z,3.10
2023-10-17T00:07:49.168Z,3.00
2023-10-17T00:10:18.557Z,3.00
2023-10-17T00:12:54.193Z,3.00
2023-10-17T00:15:36.058Z,3.20
2023-10-17T00:18:12.296Z,3.30
2023-10-17T00:20:39.642Z,3.30
2023-10-17T00:23:07.878Z,3.20
2023-10-17T00:25:38.383Z,3.10
2023-10-17T00:28:05.262Z,3.10
2023-10-17T00:30:33.967Z,3.00
2023-10-17T00:33:00.743Z,2.90
2023-10-17T00:35:27.847Z,2.80
2023-10-17T00:37:57.654Z,2.90
2023-10-17T00:40:34.766Z,3.00
2023-10-17T00:43:05.401Z,3.10
2023-10-17T00:45:35.604Z,3.20
2023-10-17T00:48:08.587Z,3.20
2023-10-17T00:50:39.041Z,3.30
2023-10-17T00:53:07.141Z,3.30
2023-10-17T00:55:35.683Z,3.20
2023-10-17T00:58:06.776Z,3.10
2023-10-17T01:00:37.289Z,3.10
2023-10-17T01:03:14.242Z,3.10
2023-10-17T01:06:40.954Z,3.10
2023-10-17T01:09:19.566Z,3.20
2023-10-17T01:11:47.032Z,3.20
2023-10-17T01:14:19.620Z,3.10
2023-10-17T01:16:47.229Z,3.10
2023-10-17T01:19:17.053Z,3.00
2023-10-17T01:21:43.529Z,3.00
2023-10-17T01:24:10.279Z,3.10
2023-10-17T01:26:38.452Z,3.10
2023-10-17T01:29:11.512Z,3.10
2023-10-17T01:31:44.094Z,3.10
2023-10-17T01:34:12.008Z,3.10
2023-10-17T01:36:41.779Z,3.20
2023-10-17T01:39:11.435Z,3.20
2023-10-17T01:41:48.322Z,3.30
2023-10-17T01:44:15.157Z,3.30
2023-10-17T01:46:44.225Z,3.00
2023-10-17T01:49:10.865Z,3.00
2023-10-17T01:51:38.394Z,3.00
2023-10-17T01:54:13.732Z,3.00
2023-10-17T01:56:41.030Z,3.10
2023-10-17T01:59:13.916Z,3.10
2023-10-17T02:01:43.320Z,3.10
2023-10-17T02:04:19.008Z,3.20
2023-10-17T02:06:48.782Z,3.10
2023-10-17T02:09:24.951Z,3.20
2023-10-17T02:11:56.453Z,3.20
2023-10-17T02:14:26.069Z,3.20
2023-10-17T02:16:53.379Z,3.20
2023-10-17T02:19:24.046Z,3.20
2023-10-17T02:21:51.068Z,3.30
2023-10-17T02:24:20.865Z,3.30
2023-10-17T02:26:56.799Z,3.10
2023-10-17T02:29:27.241Z,3.00
2023-10-17T02:31:57.770Z,3.00
2023-10-17T02:34:24.547Z,3.10
2023-10-17T02:36:51.125Z,3.10
2023-10-17T02:39:17.787Z,3.00
2023-10-17T02:41:46.551Z,3.00
2023-10-17T02:44:19.693Z,3.00
2023-10-17T02:46:46.250Z,3.00
2023-10-17T02:49:16.612Z,3.00
2023-10-17T02:51:43.687Z,3.10
2023-10-17T02:54:16.453Z,3.20
2023-10-17T02:56:54.029Z,3.20
2023-10-17T02:59:22.417Z,3.10
2023-10-17T03:01:54.588Z,3.20
2023-10-17T03:04:24.232Z,3.30
2023-10-17T03:06:59.829Z,3.30
2023-10-17T03:09:26.363Z,3.40
2023-10-17T03:11:57.557Z,3.40
2023-10-17T03:14:33.518Z,3.30
2023-10-17T03:17:00.055Z,3.30
2023-10-17T03:19:27.551Z,3.30
2023-10-17T03:21:59.550Z,3.20
2023-10-17T03:24:47.353Z,3.10
2023-10-17T03:27:27.453Z,3.10
2023-10-17T03:29:54.281Z,3.10
2023-10-17T03:32:23.755Z,3.10
2023-10-17T03:34:58.815Z,3.10
2023-10-17T03:37:25.404Z,3.10
2023-10-17T03:40:19.948Z,3.10
2023-10-17T03:42:53.991Z,3.10
2023-10-17T03:45:27.302Z,3.10
2023-10-17T03:47:57.490Z,2.90
2023-10-17T03:50:41.616Z,2.80
2023-10-17T03:53:15.041Z,2.90
2023-10-17T03:55:44.496Z,3.00
2023-10-17T03:58:24.183Z,3.00
2023-10-17T04:00:56.399Z,2.90
2023-10-17T04:03:26.166Z,2.90
2023-10-17T04:06:19.162Z,3.00
2023-10-17T04:09:08.742Z,2.80
2023-10-17T04:11:37.204Z,2.70
2023-10-17T04:14:04.223Z,2.50
2023-10-17T04:16:33.273Z,2.40
2023-10-17T04:19:08.297Z,2.40
2023-10-17T04:21:46.018Z,2.40
2023-10-17T04:24:25.237Z,2.50
2023-10-17T04:26:55.574Z,2.50
2023-10-17T04:29:27.056Z,2.50
2023-10-17T04:31:57.407Z,2.40
2023-10-17T04:34:27.342Z,2.30
2023-10-17T04:36:55.718Z,2.30
2023-10-17T04:39:25.167Z,2.40
2023-10-17T04:41:53.463Z,2.30
2023-10-17T04:44:23.014Z,2.30
2023-10-17T04:46:51.036Z,2.30
2023-10-17T04:49:25.005Z,2.30
2023-10-17T04:52:06.925Z,2.20
2023-10-17T04:54:38.407Z,2.20
2023-10-17T04:57:07.745Z,2.00
2023-10-17T04:59:49.817Z,2.00
2023-10-17T05:02:21.343Z,2.10
2023-10-17T05:04:56.050Z,2.20
2023-10-17T05:07:33.361Z,2.10
2023-10-17T05:10:18.445Z,2.10
2023-10-17T05:13:03.382Z,2.10
2023-10-17T05:15:48.430Z,2.00
2023-10-17T05:18:33.560Z,2.00
2023-10-17T05:21:28.931Z,2.00
2023-10-17T05:24:14.427Z,2.00
2023-10-17T05:26:59.326Z,2.10
2023-10-17T05:29:44.341Z,2.20
2023-10-17T05:32:29.700Z,2.20
2023-10-17T05:35:14.676Z,2.30
2023-10-17T05:37:59.700Z,2.20
2023-10-17T05:40:47.671Z,2.20
2023-10-17T05:43:32.906Z,2.20
2023-10-17T05:48:51.711Z,2.10
2023-10-17T05:51:36.332Z,2.10
2023-10-17T05:57:08.670Z,2.20
2023-10-17T05:59:53.797Z,2.20
2023-10-17T06:02:38.757Z,2.30
2023-10-17T06:05:24.176Z,2.40
2023-10-17T06:08:09.084Z,2.50
2023-10-17T06:10:53.978Z,2.60
2023-10-17T06:13:38.890Z,2.70
2023-10-17T06:16:23.899Z,2.80
2023-10-17T06:18:50.577Z,2.80
2023-10-17T06:21:20.244Z,2.90
2023-10-17T06:23:50.434Z,3.00
2023-10-17T06:26:39.474Z,3.20
2023-10-17T06:29:21.460Z,3.40
2023-10-17T06:31:56.779Z,3.50
2023-10-17T06:34:24.675Z,3.60
2023-10-17T06:36:59.962Z,3.70
2023-10-17T06:39:36.928Z,3.80
2023-10-17T06:42:16.181Z,3.90
2023-10-17T06:44:54.700Z,4.00
2023-10-17T06:47:42.363Z,3.90
2023-10-17T06:50:14.857Z,3.90
2023-10-17T06:52:52.155Z,4.00
2023-10-17T06:55:28.817Z,4.00
2023-10-17T06:57:58.130Z,4.00
2023-10-17T07:00:25.226Z,4.10
2023-10-17T07:02:57.004Z,4.10
2023-10-17T07:05:24.649Z,4.20
2023-10-17T07:07:54.205Z,4.30
2023-10-17T07:10:24.293Z,4.40
2023-10-17T07:13:52.516Z,4.50
2023-10-17T07:16:34.504Z,4.60
2023-10-17T07:19:21.464Z,4.60
2023-10-17T07:21:59.828Z,4.80
2023-10-17T07:24:34.759Z,5.00
2023-10-17T07:27:13.266Z,5.10
2023-10-17T07:29:46.150Z,5.30
2023-10-17T07:32:17.108Z,5.50
2023-10-17T07:34:47.028Z,5.60
2023-10-17T07:37:13.622Z,5.80
2023-10-17T07:39:40.760Z,5.90
2023-10-17T07:42:29.189Z,6.00
2023-10-17T07:44:58.416Z,6.10
2023-10-17T07:47:33.725Z,6.30
2023-10-17T07:50:00.865Z,6.50
2023-10-17T07:52:31.395Z,6.70
2023-10-17T07:54:58.581Z,6.90
2023-10-17T07:57:40.786Z,7.00
2023-10-17T08:00:28.133Z,7.20
2023-10-17T08:03:15.163Z,7.30
2023-10-17T08:06:29.699Z,7.60
2023-10-17T08:08:58.345Z,7.80
2023-10-17T08:11:27.362Z,8.10
2023-10-17T08:14:07.239Z,8.30
2023-10-17T08:16:34.161Z,8.50
2023-10-17T08:19:19.435Z,8.70
2023-10-17T08:22:04.331Z,9.00
2023-10-17T08:24:39.807Z,9.30
2023-10-17T08:27:15.034Z,9.50
2023-10-17T08:29:48.465Z,9.60
2023-10-17T08:32:21.343Z,9.70
2023-10-17T08:34:58.514Z,9.60
2023-10-17T08:37:29.869Z,9.70
2023-10-17T08:39:57.713Z,9.90
2023-10-17T08:42:30.164Z,10.00
2023-10-17T08:45:00.107Z,10.10
2023-10-17T08:47:30.586Z,10.30
2023-10-17T08:50:05.382Z,10.50
2023-10-17T08:52:35.628Z,10.60
2023-10-17T08:55:03.257Z,10.70
2023-10-17T08:57:31.877Z,10.90
2023-10-17T09:00:10.218Z,11.20
2023-10-17T09:02:49.216Z,11.30
2023-10-17T09:05:25.764Z,11.50
2023-10-17T09:08:03.557Z,11.60
2023-10-17T09:10:37.027Z,11.70
2023-10-17T09:15:57.964Z,11.60
2023-10-17T09:18:29.771Z,11.60
2023-10-17T09:20:58.224Z,11.60
2023-10-17T09:23:30.611Z,11.70
2023-10-17T09:26:10.503Z,11.70
2023-10-17T09:28:40.005Z,11.80
2023-10-17T09:31:12.686Z,11.80
2023-10-17T09:33:48.730Z,11.80
2023-10-17T09:36:19.700Z,11.90
2023-10-17T09:38:57.961Z,11.90
2023-10-17T09:41:26.569Z,11.90
2023-10-17T09:43:53.548Z,11.90
2023-10-17T09:46:30.195Z,11.90
2023-10-17T09:49:03.465Z,11.80
2023-10-17T09:51:36.019Z,11.70
2023-10-17T09:54:04.970Z,11.70
2023-10-17T09:56:42.780Z,11.80
2023-10-17T09:59:18.338Z,11.90
2023-10-17T10:01:49.724Z,11.90
2023-10-17T10:04:19.835Z,11.80
2023-10-17T10:06:46.857Z,11.90
2023-10-17T10:09:37.113Z,11.90
2023-10-17T10:12:04.236Z,12.00
2023-10-17T10:14:45.518Z,12.00
2023-10-17T10:17:16.392Z,12.10
2023-10-17T10:20:04.933Z,12.10
2023-10-17T10:22:51.038Z,12.20
2023-10-17T10:25:17.799Z,12.30
2023-10-17T10:27:44.366Z,12.30
2023-10-17T10:30:38.682Z,12.50
2023-10-17T10:33:05.416Z,12.70
2023-10-17T10:35:32.762Z,12.70
2023-10-17T10:38:00.420Z,12.60
2023-10-17T10:40:30.766Z,12.60
2023-10-17T10:43:01.922Z,12.60
2023-10-17T10:45:36.695Z,12.70
2023-10-17T10:48:18.488Z,12.90
2023-10-17T10:50:47.751Z,12.90
2023-10-17T10:53:28.940Z,12.80
2023-10-17T10:56:09.554Z,12.70
2023-10-17T10:58:51.761Z,12.80
2023-10-17T11:01:22.322Z,12.80
2023-10-17T11:03:52.651Z,12.60
2023-10-17T11:06:25.326Z,12.50
2023-10-17T11:08:54.603Z,12.50
2023-10-17T11:11:21.286Z,12.50
2023-10-17T11:13:51.199Z,12.60
2023-10-17T11:16:25.358Z,12.70
2023-10-17T11:18:52.223Z,12.70
2023-10-17T11:21:23.239Z,12.60
2023-10-17T11:24:00.360Z,12.60
2023-10-17T11:26:34.666Z,12.70
2023-10-17T11:29:03.992Z,12.60
2023-10-17T11:31:32.087Z,12.70
2023-10-17T11:34:04.955Z,12.70
2023-10-17T11:36:56.325Z,12.70
2023-10-17T11:39:26.840Z,12.90
2023-10-17T11:41:56.934Z,12.90
2023-10-17T11:44:27.804Z,12.80
2023-10-17T11:47:04.394Z,12.80
2023-10-17T11:49:38.934Z,12.90
2023-10-17T11:52:14.589Z,12.60
2023-10-17T11:55:04.360Z,12.30
2023-10-17T11:57:34.515Z,12.30
2023-10-17T12:00:18.880Z,12.40
2023-10-17T12:02:50.221Z,12.40
2023-10-17T12:05:28.142Z,12.30
2023-10-17T12:07:54.843Z,12.30
2023-10-17T12:10:22.561Z,12.40
2023-10-17T12:12:52.658Z,12.40
2023-10-17T12:15:21.060Z,12.30
2023-10-17T12:17:50.703Z,12.30
2023-10-17T12:20:17.486Z,12.30
2023-10-17T12:22:44.049Z,12.40
2023-10-17T12:25:10.605Z,12.40
2023-10-17T12:27:39.817Z,12.50
2023-10-17T12:30:09.928Z,12.50
2023-10-17T12:32:36.566Z,12.60
2023-10-17T12:35:05.732Z,12.80
2023-10-17T12:37:43.621Z,12.90
2023-10-17T12:40:19.208Z,13.00
2023-10-17T12:42:49.945Z,13.10
2023-10-17T12:45:17.931Z,13.20
2023-10-17T12:47:46.160Z,13.20
2023-10-17T12:50:16.185Z,13.20
2023-10-17T12:52:42.738Z,13.30
2023-10-17T12:55:09.864Z,13.40
2023-10-17T12:57:39.335Z,13.50
2023-10-17T13:00:11.600Z,13.50
2023-10-17T13:02:41.847Z,13.60
2023-10-17T13:05:10.470Z,13.70
2023-10-17T13:07:41.885Z,13.70
2023-10-17T13:10:09.568Z,13.60
2023-10-17T13:12:36.283Z,13.40
2023-10-17T13:15:03.436Z,13.30
2023-10-17T13:17:30.041Z,13.20
2023-10-17T13:19:58.110Z,13.10
2023-10-17T13:22:24.785Z,13.00
2023-10-17T13:24:51.414Z,12.90
2023-10-17T13:27:20.512Z,13.00
2023-10-17T13:29:48.145Z,13.00
2023-10-17T13:32:15.433Z,13.10
2023-10-17T13:34:42.010Z,13.20
2023-10-17T13:37:12.186Z,13.10
2023-10-17T13:39:39.223Z,13.10
2023-10-17T13:42:06.374Z,13.10
2023-10-17T13:44:34.615Z,13.00
2023-10-17T13:47:01.177Z,13.00
2023-10-17T13:49:30.377Z,13.00
2023-10-17T13:51:57.064Z,12.90
2023-10-17T13:54:23.676Z,13.00
2023-10-17T13:56:50.259Z,13.00
2023-10-17T13:59:17.857Z,12.90
2023-10-17T14:01:47.103Z,13.00
2023-10-17T14:04:14.722Z,12.90
2023-10-17T14:06:45.421Z,12.80
2023-10-17T14:09:15.205Z,12.80
2023-10-17T14:11:48.728Z,12.70
2023-10-17T14:14:15.801Z,12.70
2023-10-17T14:16:43.039Z,12.60
2023-10-17T14:19:18.644Z,12.50
2023-10-17T14:22:01.706Z,12.60
2023-10-17T14:24:30.180Z,12.60
2023-10-17T14:26:58.087Z,12.60
2023-10-17T14:29:24.604Z,12.70
2023-10-17T14:31:51.831Z,12.90
2023-10-17T14:34:18.363Z,12.90
2023-10-17T14:36:47.324Z,12.90
2023-10-17T14:39:13.995Z,12.70
2023-10-17T14:41:40.630Z,12.70
2023-10-17T14:44:07.404Z,12.70
2023-10-17T14:46:34.082Z,12.60
2023-10-17T14:49:02.134Z,12.50
2023-10-17T14:51:28.797Z,12.30
2023-10-17T14:53:56.117Z,12.30
2023-10-17T14:56:22.875Z,12.10
2023-10-17T14:58:53.476Z,12.10
2023-10-17T15:01:21.069Z,12.00
2023-10-17T15:03:48.618Z,12.00
2023-10-17T15:06:15.468Z,12.00
2023-10-17T15:08:41.980Z,12.00
2023-10-17T15:11:11.203Z,11.90
2023-10-17T15:13:38.700Z,11.90
2023-10-17T15:16:17.754Z,11.80
2023-10-17T15:18:47.396Z,11.70
2023-10-17T15:21:15.828Z,11.60
2023-10-17T15:23:46.540Z,11.60
2023-10-17T15:26:13.548Z,11.50
2023-10-17T15:28:44.854Z,11.40
2023-10-17T15:31:12.706Z,11.30
2023-10-17T15:33:39.385Z,11.20
2023-10-17T15:36:11.501Z,11.20
2023-10-17T15:38:42.693Z,11.10
2023-10-17T15:41:16.456Z,11.00
2023-10-17T15:43:43.980Z,10.90
2023-10-17T15:46:15.986Z,10.80
2023-10-17T15:48:45.776Z,10.70
2023-10-17T15:51:20.369Z,10.60
2023-10-17T15:53:47.216Z,10.50
2023-10-17T15:56:13.748Z,10.50
2023-10-17T15:58:42.496Z,10.40
2023-10-17T16:01:13.193Z,10.30
2023-10-17T16:03:41.924Z,10.30
2023-10-17T16:06:08.539Z,10.30
2023-10-17T16:08:35.089Z,10.20
2023-10-17T16:11:03.212Z,10.20
2023-10-17T16:13:29.762Z,10.10
2023-10-17T16:16:01.094Z,10.10
2023-10-17T16:18:28.201Z,9.90
2023-10-17T16:20:54.816Z,9.90
2023-10-17T16:23:21.360Z,9.80
2023-10-17T16:25:52.728Z,9.90
2023-10-17T16:28:20.033Z,9.90
2023-10-17T16:30:48.240Z,9.90
2023-10-17T16:33:14.874Z,9.80
2023-10-17T16:35:44.807Z,9.70
2023-10-17T16:38:12.192Z,9.70
2023-10-17T16:40:46.379Z,9.70
2023-10-17T16:43:12.918Z,9.60
2023-10-17T16:45:46.226Z,9.50
2023-10-17T16:48:13.764Z,9.50
2023-10-17T16:50:46.963Z,9.40
2023-10-17T16:53:13.468Z,9.40
2023-10-17T16:55:40.005Z,9.30
2023-10-17T16:58:06.646Z,9.30
2023-10-17T17:00:33.420Z,9.30
2023-10-17T17:03:00.013Z,9.30
2023-10-17T17:05:27.002Z,9.30
2023-10-17T17:07:53.550Z,9.30
2023-10-17T17:10:20.221Z,9.30
2023-10-17T17:12:48.014Z,9.30
2023-10-17T17:15:15.938Z,9.30
2023-10-17T17:17:43.729Z,9.30
2023-10-17T17:20:13.766Z,9.40
2023-10-17T17:22:41.668Z,9.30
2023-10-17T17:25:13.905Z,9.30
2023-10-17T17:27:41.283Z,9.30
2023-10-17T17:30:08.899Z,9.30
2023-10-17T17:32:36.267Z,9.40
2023-10-17T17:35:04.030Z,9.30
2023-10-17T17:37:30.676Z,9.30
2023-10-17T17:39:57.204Z,9.30
2023-10-17T17:42:23.859Z,9.30
2023-10-17T17:44:50.397Z,9.30
2023-10-17T17:47:18.106Z,9.30
2023-10-17T17:49:46.093Z,9.40
2023-10-17T17:52:12.625Z,9.40
2023-10-17T17:54:39.163Z,9.30
2023-10-17T17:57:06.338Z,9.30
2023-10-17T17:59:33.119Z,9.20
2023-10-17T18:01:59.759Z,9.30
2023-10-17T18:04:31.344Z,9.20
2023-10-17T18:06:58.618Z,9.20
2023-10-17T18:09:25.322Z,9.10
2023-10-17T18:11:51.872Z,9.10
2023-10-17T18:14:19.812Z,9.20
2023-10-17T18:16:46.409Z,9.20
2023-10-17T18:19:13.598Z,9.10
2023-10-17T18:21:40.511Z,9.10
2023-10-17T18:24:10.051Z,9.10
2023-10-17T18:26:39.141Z,9.10
2023-10-17T18:29:10.709Z,9.10
2023-10-17T18:31:39.554Z,9.10
2023-10-17T18:34:06.385Z,9.10
2023-10-17T18:36:33.785Z,9.10
2023-10-17T18:39:03.332Z,9.10
2023-10-17T18:41:31.570Z,9.10
2023-10-17T18:43:58.203Z,9.10
2023-10-17T18:46:24.880Z,9.10
2023-10-17T18:48:51.718Z,9.10
2023-10-17T18:51:19.546Z,9.10
2023-10-17T18:53:46.349Z,9.10
2023-10-17T18:56:14.131Z,9.00
2023-10-17T18:58:41.374Z,9.00
2023-10-17T19:01:14.009Z,8.90
2023-10-17T19:03:43.652Z,8.90
2023-10-17T19:06:11.913Z,8.90
2023-10-17T19:08:38.470Z,8.90
2023-10-17T19:11:05.176Z,8.90
2023-10-17T19:13:33.395Z,8.80
2023-10-17T19:16:00.195Z,8.80
2023-10-17T19:18:27.979Z,8.80
2023-10-17T19:20:54.490Z,8.70
2023-10-17T19:23:21.747Z,8.70
2023-10-17T19:25:49.049Z,8.60
2023-10-17T19:28:16.808Z,8.60
2023-10-17T19:30:45.825Z,8.50
2023-10-17T19:33:13.443Z,8.50
2023-10-17T19:35:39.981Z,8.40
2023-10-17T19:38:09.897Z,8.50
2023-10-17T19:40:36.448Z,8.50
2023-10-17T19:43:03.424Z,8.50
2023-10-17T19:45:30.188Z,8.50
2023-10-17T19:47:58.453Z,8.40
2023-10-17T19:50:26.748Z,8.30
2023-10-17T19:52:53.844Z,8.10
2023-10-17T19:55:20.517Z,7.90
2023-10-17T19:57:48.052Z,7.80
2023-10-17T20:00:22.941Z,7.60
2023-10-17T20:02:50.437Z,7.50
2023-10-17T20:05:17.277Z,7.40
2023-10-17T20:07:44.988Z,7.30
2023-10-17T20:10:12.047Z,7.20
2023-10-17T20:12:40.265Z,7.10
2023-10-17T20:15:14.563Z,7.10
2023-10-17T20:17:41.722Z,6.80
2023-10-17T20:20:10.294Z,6.70
2023-10-17T20:22:37.649Z,6.70
2023-10-17T20:25:04.976Z,6.60
2023-10-17T20:27:31.940Z,6.60
2023-10-17T20:30:02.345Z,6.50
2023-10-17T20:32:28.945Z,6.50
2023-10-17T20:34:55.530Z,6.40
2023-10-17T20:37:22.087Z,6.40
2023-10-17T20:39:53.400Z,6.20
2023-10-17T20:42:20.157Z,6.10
2023-10-17T20:44:46.730Z,6.00
2023-10-17T20:47:13.285Z,5.90
2023-10-17T20:49:39.870Z,5.90
2023-10-17T20:52:12.522Z,6.00
2023-10-17T20:54:42.617Z,6.00
2023-10-17T20:57:09.527Z,5.90
2023-10-17T20:59:36.292Z,5.80
2023-10-17T21:02:03.938Z,5.80
2023-10-17T21:04:30.629Z,5.80
2023-10-17T21:06:57.353Z,5.60
2023-10-17T21:09:23.891Z,5.40
2023-10-17T21:11:50.470Z,5.30
2023-10-17T21:14:16.983Z,5.30
2023-10-17T21:16:44.316Z,5.30
2023-10-17T21:19:10.988Z,5.30
2023-10-17T21:21:37.778Z,5.20
2023-10-17T21:24:09.597Z,5.30
2023-10-17T21:26:36.358Z,5.30
2023-10-17T21:29:03.694Z,5.20
2023-10-17T21:31:30.247Z,5.10
2023-10-17T21:33:57.469Z,5.00
2023-10-17T21:36:24.390Z,5.00
2023-10-17T21:38:52.244Z,4.90
2023-10-17T21:41:18.941Z,4.90
2023-10-17T21:43:45.491Z,4.90
2023-10-17T21:46:12.200Z,4.80
2023-10-17T21:48:47.661Z,4.80
2023-10-17T21:51:18.799Z,4.80
2023-10-17T21:53:45.868Z,4.90
2023-10-17T21:56:13.064Z,4.80
2023-10-17T21:58:39.583Z,4.80
2023-10-17T22:01:15.673Z,4.80
2023-10-17T22:03:43.693Z,4.80
2023-10-17T22:06:13.689Z,4.80
2023-10-17T22:08:44.474Z,5.10
2023-10-17T22:11:13.460Z,5.30
2023-10-17T22:13:45.326Z,5.50
2023-10-17T22:16:13.831Z,5.50
2023-10-17T22:18:43.418Z,5.50
2023-10-17T22:21:14.461Z,5.20
2023-10-17T22:23:40.945Z,4.80
2023-10-17T22:26:09.846Z,4.60
2023-10-17T22:28:36.438Z,4.40
2023-10-17T22:31:03.535Z,4.40
2023-10-17T22:33:30.340Z,4.40
2023-10-17T22:35:56.993Z,4.30
2023-10-17T22:38:23.641Z,4.20
2023-10-17T22:40:50.172Z,4.20
2023-10-17T22:43:16.968Z,4.30
2023-10-17T22:45:47.734Z,4.20
2023-10-17T22:48:15.017Z,4.30
2023-10-17T22:50:41.616Z,4.20
2023-10-17T22:53:08.593Z,4.10
2023-10-17T22:55:35.348Z,4.10
2023-10-17T22:58:01.948Z,4.20
2023-10-17T23:00:28.491Z,4.10
2023-10-17T23:02:55.411Z,4.00
2023-10-17T23:05:22.109Z,4.00
2023-10-17T23:07:48.772Z,4.10
2023-10-17T23:10:15.883Z,4.10
2023-10-17T23:12:42.762Z,3.90
2023-10-17T23:15:15.730Z,3.80
2023-10-17T23:17:46.093Z,3.70
2023-10-17T23:20:15.351Z,3.60
2023-10-17T23:22:48.415Z,3.70
2023-10-17T23:25:16.999Z,3.70
2023-10-17T23:27:44.931Z,3.90
2023-10-17T23:30:15.443Z,4.00
2023-10-17T23:32:44.204Z,4.10
2023-10-17T23:35:11.219Z,4.20
2023-10-17T23:37:39.640Z,4.20
2023-10-17T23:40:08.759Z,4.20
2023-10-17T23:42:36.672Z,4.30
2023-10-17T23:45:07.366Z,4.30
2023-10-17T23:47:35.548Z,4.00
2023-10-17T23:50:15.967Z,3.80
2023-10-17T23:52:46.816Z,3.70
2023-10-17T23:55:14.670Z,3.70
2023-10-17T23:57:46.120Z,3.60
